Time;durP1;ratioP1;P1;durP2;ratioP2;P2;SDS_P1;SDS_P2;PMS_P1;PMS_P2;Temp;Humidity;BMP_temperature;BMP_pressure;BME280_temperature;BME280_humidity;BME280_pressure;Samples;Min_cycle;Max_cycle;Signal;HPM_P1;HPM_P2
2023/02/07 00:00:44;;;;;;;;;93.00;61.67;;;;;-5.88;89.67;101771.09;6311737;20;3672171;-54
2023/02/07 00:03:14;;;;;;;;;85.33;61.00;;;;;20.48;90.43;136402.50;6311734;20;2899240;-55
2023/02/07 00:05:44;;;;;;;;;93.67;63.33;;;;;-5.67;90.19;101783.22;6312864;20;3664851;-57
2023/02/07 00:08:13;;;;;;;;;72.50;57.50;;;;;-5.70;89.84;101781.38;6313551;20;2526425;-56
2023/02/07 00:10:43;;;;;;;;;88.33;63.67;;;;;-5.71;89.34;101787.47;6283638;20;3675290;-56
2023/02/07 00:13:11;;;;;;;;;82.00;62.00;;;;;-5.82;89.27;101791.34;6313754;20;2502730;-55
2023/02/07 00:15:39;;;;;;;;;78.00;59.00;;;;;-5.94;89.24;101790.94;6281496;20;2502424;-56
2023/02/07 00:18:08;;;;;;;;;87.00;66.00;;;;;-5.94;90.04;101801.41;6284550;20;2892000;-56
2023/02/07 00:20:37;;;;;;;;;81.00;58.00;;;;;-5.99;90.31;101802.09;6286356;20;2898293;-51
2023/02/07 00:23:06;;;;;;;;;73.00;53.00;;;;;-5.85;90.24;101794.75;6315409;20;2889056;-55
2023/02/07 00:25:35;;;;;;;;;76.33;55.33;;;;;-5.84;89.83;101798.28;6287085;20;2885744;-52
2023/02/07 00:28:04;;;;;;;;;81.00;58.00;;;;;-6.02;90.27;101809.81;6313199;20;2498201;-57
2023/02/07 00:30:33;;;;;;;;;82.67;57.00;;;;;-5.68;89.98;101811.13;6282198;20;2897145;-54
2023/02/07 00:33:02;;;;;;;;;84.33;63.33;;;;;-5.71;89.42;101803.16;6312341;20;3644058;-50
2023/02/07 00:35:32;;;;;;;;;90.00;63.33;;;;;-5.87;89.10;101813.81;6314152;20;3664850;-57
2023/02/07 00:38:01;;;;;;;;;87.33;60.67;;;;;-5.75;89.65;101809.97;6311703;20;2908710;-53
2023/02/07 00:40:30;;;;;;;;;93.00;65.33;;;;;-5.83;89.54;101810.50;6316475;20;2908858;-56
2023/02/07 00:43:00;;;;;;;;;87.33;64.00;;;;;-5.62;89.26;101821.81;6315145;20;3663942;-56
2023/02/07 00:45:28;;;;;;;;;77.00;57.00;;;;;-5.68;89.35;101821.59;6313520;20;2502407;-57
2023/02/07 00:47:56;;;;;;;;;74.80;58.00;;;;;-5.96;89.99;101814.41;6284265;20;3610788;-55
2023/02/07 00:50:25;;;;;;;;;79.60;62.00;;;;;-5.96;89.70;101817.00;6280415;20;3621083;-54
2023/02/07 00:52:55;;;;;;;;;119.00;80.80;;;;;-5.74;89.89;101811.78;6281954;20;4313826;-56
2023/02/07 00:55:24;;;;;;;;;105.67;73.33;;;;;-5.75;89.65;101806.47;6315967;20;3684662;-55
2023/02/07 00:57:54;;;;;;;;;91.17;61.17;;;;;-5.85;89.88;101801.72;6277707;20;3670151;-55
2023/02/07 01:00:22;;;;;;;;;63.00;48.00;;;;;-5.83;90.23;101807.91;6309946;20;2510713;-53
2023/02/07 01:02:51;;;;;;;;;84.67;57.33;;;;;-5.86;90.29;101805.16;6287883;20;2894142;-56
2023/02/07 01:05:21;;;;;;;;;83.67;60.33;;;;;-5.88;90.36;101805.09;6316034;20;2894180;-56
2023/02/07 01:07:49;;;;;;;;;79.00;60.00;;;;;-6.06;90.30;101801.78;6317954;20;2500302;-55
2023/02/07 01:10:19;;;;;;;;;87.33;61.00;;;;;-5.83;90.31;101807.91;6283123;20;2898291;-55
2023/02/07 01:12:50;;;;;;;;;92.67;65.67;;;;;-5.87;90.33;101799.06;6314119;20;3661750;-53
2023/02/07 01:15:20;;;;;;;;;91.33;68.33;;;;;-5.74;90.15;101800.41;6315627;20;3653408;-55
2023/02/07 01:17:50;;;;;;;;;84.67;62.67;;;;;-5.91;90.04;101793.63;6311511;20;2894138;-53
2023/02/07 01:20:19;;;;;;;;;85.17;61.00;;;;;-5.97;100.00;62182.44;6311975;20;3662850;-55
2023/02/07 01:22:48;;;;;;;;;78.50;61.00;;;;;-5.98;89.61;101796.06;6314842;20;2873252;-54
2023/02/07 01:25:17;;;;;;;;;77.33;56.33;;;;;-5.98;90.25;101782.97;6280714;20;2888874;-55
2023/02/07 01:27:46;;;;;;;;;81.50;58.00;;;;;-5.84;90.31;101787.81;6315049;20;2884657;-55
2023/02/07 01:30:15;;;;;;;;;76.60;56.00;;;;;-5.77;90.06;101781.97;6280753;20;3632568;-56
2023/02/07 01:32:44;;;;;;;;;69.00;52.00;;;;;-5.77;89.60;101767.16;6280748;20;2865898;-56
2023/02/07 01:35:13;;;;;;;;;92.00;71.00;;;;;-5.71;89.54;101777.00;6282868;20;3648160;-56
2023/02/07 01:37:42;;;;;;;;;111.33;79.00;;;;;-5.73;89.57;101776.03;6278896;20;3678412;-53
2023/02/07 01:40:13;;;;;;;;;112.67;83.00;;;;;-5.79;89.64;101771.47;6315845;20;3684722;-54
2023/02/07 01:42:43;;;;;;;;;104.33;75.00;;;;;-5.90;89.96;101771.88;6283581;20;3663803;-54
2023/02/07 01:45:37;;;;;;;;;93.33;69.67;;;;;-5.99;90.52;101770.72;6316021;20;3653373;-56
2023/02/07 01:48:24;;;;;;;;;98.67;69.33;;;;;-5.88;90.35;101759.75;6313291;20;3671098;-55
2023/02/07 01:50:59;;;;;;;;;93.33;66.00;;;;;-5.86;90.03;101755.47;6308145;20;2913867;-56
2023/02/07 01:53:31;;;;;;;;;82.00;61.00;;;;;-5.91;90.13;101759.63;6311052;20;3644071;-55
2023/02/07 01:56:08;;;;;;;;;81.33;58.00;;;;;-6.09;90.32;101760.72;6279907;20;2897256;-56
2023/02/07 01:58:37;;;;;;;;;76.50;52.00;;;;;-6.15;90.72;101765.72;6309828;20;2886766;-57
2023/02/07 02:01:18;;;;;;;;;74.00;57.20;;;;;-5.99;90.60;101752.41;6279091;20;3624229;-56
2023/02/07 02:03:52;;;;;;;;;65.50;52.00;;;;;-6.00;90.44;101749.75;6280062;20;2499261;-57
2023/02/07 02:06:24;;;;;;;;;84.50;57.50;;;;;-5.91;90.36;101754.41;6280764;20;2893030;-55
2023/02/07 02:09:00;;;;;;;;;72.67;57.33;;;;;-5.94;90.41;101749.09;6280149;20;3614842;-55
2023/02/07 02:11:47;;;;;;;;;78.00;54.00;;;;;-5.81;90.19;101754.81;6284233;20;2885752;-55
2023/02/07 02:15:01;;;;;;;;;65.00;49.00;;;;;-5.75;89.66;101762.00;6279590;20;2502353;-53
2023/02/07 02:17:43;;;;;;;;;69.50;49.00;;;;;-5.83;89.68;101758.19;6277154;20;2499275;-54
2023/02/07 02:21:12;;;;;;;;;80.00;60.20;;;;;-5.88;89.94;101754.50;6278261;20;3642000;-56
2023/02/07 02:24:42;;;;;;;;;78.67;54.00;;;;;-5.89;90.06;101748.41;6279310;20;2897236;-54
2023/02/07 02:28:02;;;;;;;;;58.00;47.00;;;;;-5.88;89.89;101749.28;6309134;20;2502523;-54
2023/02/07 02:31:37;;;;;;;;;64.60;45.80;;;;;-5.87;89.95;101758.91;6278933;20;3641964;-57
2023/02/07 02:34:32;;;;;;;;;66.50;42.00;;;;;-5.98;90.09;101746.38;6278758;20;2502381;-54
2023/02/07 02:37:41;;;;;;;;;53.50;40.00;;;;;-5.85;90.14;101738.94;6285136;20;2877513;-52
2023/02/07 02:40:35;;;;;;;;;74.33;48.33;;;;;-6.05;90.22;101736.50;6277400;20;3651345;-58
2023/02/07 02:43:38;;;;;;;;;67.00;48.33;;;;;-5.83;90.22;101742.50;6312787;20;2889864;-57
2023/02/07 02:46:25;;;;;;;;;74.80;52.40;;;;;-5.82;89.70;101744.28;6314104;20;3609642;-55
2023/02/07 02:48:56;;;;;;;;;58.00;45.00;;;;;-5.84;89.46;101745.97;6277676;20;2887935;-57
2023/02/07 02:51:30;;;;;;;;;75.50;54.50;;;;;-5.94;89.73;101754.31;6312201;20;2888973;-53
2023/02/07 02:54:00;;;;;;;;;94.00;69.00;;;;;-6.04;89.95;101746.09;6281619;20;2908773;-57
2023/02/07 02:56:50;;;;;;;;;83.00;63.50;;;;;-5.99;89.92;101741.06;6314127;20;2886879;-49
2023/02/07 02:59:45;;;;;;;;;53.00;33.33;;;;;-6.08;89.96;101745.91;6277938;20;3588831;-50
2023/02/07 03:02:57;;;;;;;;;44.00;40.00;;;;;-6.26;90.47;101746.09;6310953;20;2510778;-47
2023/02/07 03:06:11;;;;;;;;;83.40;58.00;;;;;-6.39;91.03;101757.78;6277298;20;3632659;-49
2023/02/07 03:09:37;;;;;;;;;69.50;49.00;;;;;-6.43;90.95;101743.69;6274714;20;2874403;-51
2023/02/07 03:12:46;;;;;;;;;57.00;46.00;;;;;-6.49;91.13;101760.84;6274538;20;2768007;-50
2023/02/07 03:15:35;;;;;;;;;83.17;69.00;;;;;-6.56;91.40;101757.06;6302224;20;3667985;-46
2023/02/07 03:18:14;;;;;;;;;80.80;64.20;;;;;-6.39;91.35;101749.94;6303299;20;3657545;-51
2023/02/07 03:20:55;;;;;;;;;79.20;61.20;;;;;-6.26;91.12;101751.34;6275462;20;3650337;-46
2023/02/07 03:23:25;;;;;;;;;48.50;35.50;;;;;-6.21;90.78;101749.81;6278724;20;2879483;-46
2023/02/07 03:25:58;;;;;;;;;70.67;52.00;;;;;-6.01;90.35;101756.69;6279480;20;2885687;-47
2023/02/07 03:28:30;;;;;;;;;68.20;51.00;;;;;-5.93;89.94;101751.72;6306560;20;3629445;-47
2023/02/07 03:31:02;;;;;;;;;66.00;46.00;;;;;-5.97;89.41;101753.38;6277455;20;3653417;-49
2023/02/07 03:33:31;;;;;;;;;48.50;37.00;;;;;-6.03;89.76;101745.28;6313000;20;2875381;-49
2023/02/07 03:36:16;;;;;;;;;49.00;43.00;;;;;-6.23;90.38;101747.13;6277501;20;2502406;-47
2023/02/07 03:38:46;;;;;;;;;74.40;54.00;;;;;-6.26;90.46;101746.09;6277001;20;3637878;-46
2023/02/07 03:41:37;;;;;;;;;76.50;57.00;;;;;-6.36;91.03;101743.97;6272656;20;2502406;-47
2023/02/07 03:44:10;;;;;;;;;61.50;46.00;;;;;-6.28;90.82;101738.19;6284856;20;2895068;-48
2023/02/07 03:46:39;;;;;;;;;69.50;49.00;;;;;-6.37;91.26;101740.47;6280388;20;2501371;-49
2023/02/07 03:49:10;;;;;;;;;67.67;49.00;;;;;-6.15;90.75;101738.69;6285550;20;2887791;-49
2023/02/07 03:51:38;;;;;;;;;70.00;51.50;;;;;-6.11;90.02;101731.00;6314539;20;2884788;-47
2023/02/07 03:54:08;;;;;;;;;62.67;44.33;;;;;-6.17;89.99;101736.00;6285631;20;2894162;-47
2023/02/07 03:56:37;;;;;;;;;65.00;46.00;;;;;-6.13;89.91;101729.16;6311544;20;2502357;-47
2023/02/07 03:59:07;;;;;;;;;58.50;46.00;;;;;-6.00;89.40;101734.06;6286065;20;2882577;-48
2023/02/07 04:01:40;;;;;;;;;66.33;45.00;;;;;-5.89;88.88;101727.47;6282964;20;3646097;-49
2023/02/07 04:04:10;;;;;;;;;79.67;55.33;;;;;-5.81;88.50;101730.38;6312907;20;2894060;-48
2023/02/07 04:06:39;;;;;;;;;93.33;63.00;;;;;-5.84;88.48;101730.28;6311683;20;3665895;-47
2023/02/07 04:09:09;;;;;;;;;89.67;62.33;;;;;-5.86;88.55;101732.81;6318601;20;3654480;-48
2023/02/07 04:11:40;;;;;;;;;91.33;64.67;;;;;-6.02;88.49;101736.59;6315395;20;3659649;-47
2023/02/07 04:14:09;;;;;;;;;91.67;63.67;;;;;-5.92;88.88;101731.69;6317416;20;3668551;-46
2023/02/07 04:16:39;;;;;;;;;81.33;58.67;;;;;-5.99;88.59;101730.59;6316406;20;2886837;-46
2023/02/07 04:19:08;;;;;;;;;79.00;60.00;;;;;-6.05;88.50;101726.03;6316108;20;2864895;-46
2023/02/07 04:21:36;;;;;;;;;75.50;57.00;;;;;-6.01;88.94;101722.69;6284946;20;2877372;-48
2023/02/07 04:24:05;;;;;;;;;81.60;58.00;;;;;-6.25;89.35;101717.41;6284312;20;3639847;-47
2023/02/07 04:26:35;;;;;;;;;93.67;61.00;;;;;-6.25;89.56;101716.50;6286796;20;3670149;-50
2023/02/07 04:29:04;;;;;;;;;78.50;59.00;;;;;-6.58;89.77;101716.03;6319409;20;2875302;-46
2023/02/07 04:31:34;;;;;;;;;86.83;57.33;;;;;-6.50;90.13;101723.38;6280076;20;3662912;-51
2023/02/07 04:34:04;;;;;;;;;79.20;48.40;;;;;-6.63;90.68;101729.84;6313188;20;3643177;-47
2023/02/07 04:36:35;;;;;;;;;83.00;60.67;;;;;-6.72;91.22;101728.56;6283480;20;2899349;-51
2023/02/07 04:39:04;;;;;;;;;92.50;64.50;;;;;-6.77;91.82;101724.84;6316065;20;3664918;-49
2023/02/07 04:41:34;;;;;;;;;139.33;109.83;;;;;-6.69;92.02;101733.91;6314827;20;4470050;-48
2023/02/07 04:44:04;;;;;;;;;87.83;61.17;;;;;-6.49;91.51;101738.22;6314744;20;3671133;-48
2023/02/07 04:46:33;;;;;;;;;88.33;60.67;;;;;-6.60;91.81;101739.50;6317140;20;2907837;-50
2023/02/07 04:49:03;;;;;;;;;84.00;55.00;;;;;-6.80;92.13;101743.91;6316398;20;2904615;-49
2023/02/07 04:51:33;;;;;;;;;100.83;67.83;;;;;-6.75;92.08;101757.16;6309013;20;3683768;-45
2023/02/07 04:54:03;;;;;;;;;91.33;65.33;;;;;-6.82;92.32;101748.16;6315769;20;3650300;-47
2023/02/07 04:56:32;;;;;;;;;89.67;64.33;;;;;-6.73;91.63;101758.13;6317155;20;2910766;-51
2023/02/07 04:59:03;;;;;;;;;80.67;54.00;;;;;-6.96;92.16;101758.03;6314919;20;3655509;-47
2023/02/07 05:01:33;;;;;;;;;109.00;89.33;;;;;-6.72;92.06;101760.78;6314324;20;3710755;-48
2023/02/07 05:04:02;;;;;;;;;99.40;83.80;;;;;-6.73;91.76;101753.78;6282293;20;3671689;-50
2023/02/07 05:06:31;;;;;;;;;82.00;57.50;;;;;-6.72;91.28;101760.78;6285388;20;2900335;-47
2023/02/07 05:09:00;;;;;;;;;78.33;57.67;;;;;-6.66;91.35;101760.13;6283485;20;2898540;-49
2023/02/07 05:11:29;;;;;;;;;77.80;59.20;;;;;-6.55;90.74;101768.44;6315594;20;3639841;-47
2023/02/07 05:13:58;;;;;;;;;77.20;52.00;;;;;-6.64;91.14;101764.59;6284171;20;3646314;-50
2023/02/07 05:16:28;;;;;;;;;90.67;64.00;;;;;-6.70;91.20;101773.91;6286733;20;3672165;-47
2023/02/07 05:18:55;;;;;;;;;77.00;57.00;;;;;-6.72;91.02;101775.56;6314003;20;2502518;-47
2023/02/07 05:21:25;;;;;;;;;85.67;58.33;;;;;-6.75;90.66;101776.31;6285161;20;2906649;-47
2023/02/07 05:23:55;;;;;;;;;92.33;66.00;;;;;-6.78;91.06;101775.31;6316626;20;3666929;-50
2023/02/07 05:26:24;;;;;;;;;83.00;58.00;;;;;-6.74;91.49;101788.56;6317314;20;2895088;-52
2023/02/07 05:28:54;;;;;;;;;114.50;93.67;;;;;-6.75;91.66;101785.88;6310200;20;4475323;-48
2023/02/07 05:33:02;;;;;;;;;135.17;116.50;;;;;-6.91;92.11;101792.16;6311005;20;4496109;-49
2023/02/07 05:34:14;;;;;;;;;126.67;107.17;;;;;-6.76;91.97;101791.94;6315375;20;4477349;-48
2023/02/07 05:36:43;;;;;;;;;126.33;110.00;;;;;-6.77;91.59;101796.25;6313119;20;3736724;-49
2023/02/07 05:39:13;;;;;;;;;131.00;111.17;;;;;-6.75;91.63;101791.09;6276702;20;4486746;-48
2023/02/07 05:41:43;;;;;;;;;116.67;100.83;;;;;-6.77;91.81;101792.75;6311028;20;4474218;-47
2023/02/07 05:44:12;;;;;;;;;139.67;126.00;;;;;-6.81;91.63;101790.84;6311216;20;4503446;-48
2023/02/07 05:46:42;;;;;;;;;176.00;146.00;;;;;-6.80;91.42;101782.19;6313780;20;3719270;-49
2023/02/07 05:49:12;;;;;;;;;145.67;122.33;;;;;-6.77;91.48;101787.53;6283118;20;3726332;-52
2023/02/07 05:51:41;;;;;;;;;158.83;140.17;;;;;-6.79;91.37;101784.88;6276383;20;4509657;-51
2023/02/07 05:54:11;;;;;;;;;144.33;131.33;;;;;-6.66;90.77;101787.19;6310886;20;3713916;-49
2023/02/07 05:56:41;;;;;;;;;142.67;120.17;;;;;-6.68;90.54;101782.72;6276310;20;4490896;-47
2023/02/07 05:59:11;;;;;;;;;152.33;127.67;;;;;-6.92;90.81;101777.34;6315750;20;3744075;-46
2023/02/07 06:01:39;;;;;;;;;89.20;59.80;;;;;-6.70;90.94;101790.47;6277003;20;3677333;-46
2023/02/07 06:04:07;;;;;;;;;62.00;50.00;;;;;-7.00;91.53;101787.47;6274270;20;2510724;-51
2023/02/07 06:06:35;;;;;;;;;86.00;73.50;;;;;-6.94;91.66;101792.03;6282597;20;2914876;-50
2023/02/07 06:09:04;;;;;;;;;87.00;75.20;;;;;-6.77;91.02;101797.97;6280715;20;3668068;-47
2023/02/07 06:11:33;;;;;;;;;90.60;79.60;;;;;-6.71;90.55;101803.47;6277716;20;3676604;-46
2023/02/07 06:14:03;;;;;;;;;102.17;91.50;;;;;-6.84;91.35;101796.84;6278871;20;4448601;-48
2023/02/07 06:16:31;;;;;;;;;91.60;79.60;;;;;-6.91;91.35;101806.13;6309474;20;3652380;-51
2023/02/07 06:19:01;;;;;;;;;113.83;97.83;;;;;-6.74;90.91;101806.84;6276821;20;3703606;-48
2023/02/07 06:21:31;;;;;;;;;127.83;108.83;;;;;-6.75;91.06;101810.28;6314020;20;4471063;-47
2023/02/07 06:24:15;;;;;;;;;177.33;144.00;;;;;-6.65;90.47;101814.19;6315003;20;3705448;-48
2023/02/07 06:26:45;;;;;;;;;164.50;131.50;;;;;-6.76;90.21;101805.00;6276678;20;4487730;-48
2023/02/07 06:29:15;;;;;;;;;132.33;109.33;;;;;-6.62;90.37;101809.97;6316329;20;3727435;-47
2023/02/07 06:31:45;;;;;;;;;137.67;116.00;;;;;-6.47;90.04;101803.63;6278892;20;3734790;-48
2023/02/07 06:34:14;;;;;;;;;82.60;59.20;;;;;-6.46;90.02;101790.59;6282218;20;3651297;-48
2023/02/07 06:36:43;;;;;;;;;86.20;64.00;;;;;-6.45;89.47;101787.19;6280845;20;3649418;-49
2023/02/07 06:39:11;;;;;;;;;80.00;60.50;;;;;-6.58;89.76;101787.50;6277667;20;2502460;-50
2023/02/07 06:41:40;;;;;;;;;88.67;63.00;;;;;-6.50;90.58;101793.94;6274603;20;3667041;-49
2023/02/07 06:44:10;;;;;;;;;94.33;63.67;;;;;-6.35;89.38;101795.38;6312965;20;3671239;-48
2023/02/07 06:46:40;;;;;;;;;92.83;68.17;;;;;-6.33;89.46;101788.50;6310683;20;3666034;-53
2023/02/07 06:49:11;;;;;;;;;87.83;64.33;;;;;-6.12;89.39;101783.25;6311857;20;3665904;-48
2023/02/07 06:51:39;;;;;;;;;59.80;41.00;;;;;-5.98;88.10;101782.97;6311000;20;3646089;-47
2023/02/07 06:54:09;;;;;;;;;77.20;58.40;;;;;-6.24;88.11;101784.56;6276988;20;3640906;-55
2023/02/07 06:56:38;;;;;;;;;103.00;70.00;;;;;-6.41;88.18;101786.47;6283637;20;3690903;-47
2023/02/07 06:59:08;;;;;;;;;100.00;72.33;;;;;-5.92;87.75;101786.59;6311628;20;3678499;-47
2023/02/07 07:01:38;;;;;;;;;115.33;86.67;;;;;-5.45;83.64;101790.16;6314475;20;3700264;-47
2023/02/07 07:04:08;;;;;;;;;120.00;81.33;;;;;-4.60;81.25;101794.06;6281929;20;3690962;-50
2023/02/07 07:06:37;;;;;;;;;166.67;119.33;;;;;-4.14;79.39;101804.34;6313664;20;3731551;-50
2023/02/07 07:09:07;;;;;;;;;149.33;111.67;;;;;-2.74;74.61;101808.47;6283227;20;3719085;-46
2023/02/07 07:11:41;;;;;;;;;144.00;121.00;;;;;-1.06;68.02;101810.66;6282313;20;3727327;-48
2023/02/07 07:14:12;;;;;;;;;105.33;76.00;;;;;0.14;63.18;101803.13;6282149;20;3679452;-48
2023/02/07 07:16:42;;;;;;;;;114.00;88.00;;;;;0.54;58.33;101807.22;6277526;20;3702380;-48
2023/02/07 07:19:12;;;;;;;;;118.67;78.00;;;;;-0.71;60.31;101817.53;6280285;20;3697303;-48
2023/02/07 07:21:42;;;;;;;;;115.33;93.33;;;;;-0.03;60.05;101810.75;6277914;20;3709776;-48
2023/02/07 07:24:12;;;;;;;;;401.00;289.00;;;;;-0.69;61.32;101807.88;6273703;20;3771119;-47
2023/02/07 07:26:43;;;;;;;;;316.50;221.75;;;;;0.83;58.04;101814.66;6280620;20;3726427;-46
2023/02/07 07:29:18;;;;;;;;;238.50;176.50;;;;;0.44;58.38;101815.88;6280349;20;3568980;-49
2023/02/07 07:31:49;;;;;;;;;187.25;153.00;;;;;0.47;58.67;101809.75;6312510;20;4484647;-48
2023/02/07 07:34:19;;;;;;;;;158.00;127.25;;;;;1.39;56.14;101819.69;6278450;20;3720110;-48
2023/02/07 07:36:49;;;;;;;;;103.67;89.33;;;;;2.48;52.31;101817.09;6278930;20;3685750;-46
2023/02/07 07:39:20;;;;;;;;;109.67;98.67;;;;;2.03;53.08;101813.22;6281471;20;3676298;-46
2023/02/07 07:41:50;;;;;;;;;116.00;97.00;;;;;1.99;52.71;101814.97;6313638;20;3697118;-49
2023/02/07 07:44:20;;;;;;;;;88.33;63.33;;;;;0.13;56.86;101810.16;6280301;20;3647553;-50
2023/02/07 07:46:49;;;;;;;;;78.33;61.67;;;;;-1.79;64.94;101805.56;6310673;20;2879438;-50
2023/02/07 07:49:19;;;;;;;;;84.00;62.33;;;;;-2.68;71.13;101814.78;6310814;20;3652363;-47
2023/02/07 07:51:49;;;;;;;;;103.00;76.33;;;;;-2.32;71.43;101813.94;6311212;20;3689839;-49
2023/02/07 07:54:17;;;;;;;;;77.00;53.00;;;;;-2.53;72.55;101814.28;6272448;20;2500284;-48
2023/02/07 07:56:46;;;;;;;;;90.67;64.33;;;;;-2.71;73.44;101811.22;6278570;20;3657566;-46
2023/02/07 07:59:16;;;;;;;;;89.00;63.00;;;;;-2.61;75.40;101797.41;6310089;20;2899338;-49
2023/02/07 08:01:51;;;;;;;;;81.00;62.00;;;;;-2.22;73.79;101804.56;6311420;20;2897157;-50
2023/02/07 08:04:19;;;;;;;;;72.00;55.50;;;;;-2.41;72.79;101799.69;6273430;20;2500456;-50
2023/02/07 08:06:48;;;;;;;;;73.67;58.33;;;;;-1.88;73.10;101801.00;6281866;20;2877490;-50
2023/02/07 08:09:15;;;;;;;;;76.00;59.00;;;;;-1.09;70.82;101800.94;6309341;20;2500377;-48
2023/02/07 08:11:43;;;;;;;;;74.00;57.00;;;;;-0.86;68.72;101800.53;6307647;20;2500325;-46
2023/02/07 08:14:11;;;;;;;;;78.00;57.00;;;;;-1.15;70.72;101801.72;6273696;20;2496123;-47
2023/02/07 08:16:40;;;;;;;;;69.00;52.00;;;;;-1.42;70.94;101801.13;6281777;20;2869184;-49
2023/02/07 08:19:09;;;;;;;;;77.33;59.00;;;;;-1.35;70.08;101803.03;6280622;20;3636731;-47
2023/02/07 08:21:39;;;;;;;;;83.00;59.33;;;;;-0.76;69.97;101803.38;6310329;20;2896291;-46
2023/02/07 08:24:07;;;;;;;;;70.50;52.00;;;;;-0.94;70.47;101795.09;6308472;20;2500398;-51
2023/02/07 08:26:37;;;;;;;;;76.33;55.33;;;;;-0.60;68.66;101791.34;6279993;20;2884677;-46
2023/02/07 08:29:06;;;;;;;;;101.67;72.67;;;;;-0.57;67.76;101801.06;6311799;20;3689820;-49
2023/02/07 08:31:36;;;;;;;;;80.00;59.00;;;;;-0.67;69.81;101800.88;6313709;20;2884072;-46
2023/02/07 08:34:05;;;;;;;;;72.00;53.50;;;;;-0.49;69.60;101802.09;6316203;20;2876365;-48
2023/02/07 08:36:33;;;;;;;;;69.00;54.50;;;;;-0.48;70.29;101802.09;6285731;20;2864900;-49
2023/02/07 08:39:02;;;;;;;;;63.00;50.00;;;;;-0.29;69.44;101813.88;6285153;20;2492995;-47
2023/02/07 08:41:34;;;;;;;;;44.33;27.67;;;;;-0.70;70.23;101814.03;6285686;20;3593006;-46
2023/02/07 08:44:02;;;;;;;;;82.00;62.50;;;;;-0.37;70.53;101810.22;6281266;20;2500297;-45
2023/02/07 08:46:31;;;;;;;;;64.00;48.50;;;;;-0.75;69.31;101815.69;6287288;20;2875381;-46
2023/02/07 08:48:59;;;;;;;;;63.00;46.00;;;;;-0.86;70.27;101814.59;6280166;20;2491957;-46
2023/02/07 08:51:27;;;;;;;;;53.00;46.50;;;;;-1.11;70.57;101816.75;6282724;20;2500278;-46
2023/02/07 08:53:55;;;;;;;;;43.00;36.00;;;;;-0.77;70.83;101817.38;6280650;20;2508636;-49
2023/02/07 08:56:23;;;;;;;;;66.00;49.00;;;;;-1.04;71.12;101814.22;6286228;20;2875429;-47
2023/02/07 08:58:52;;;;;;;;;63.50;49.00;;;;;-0.97;71.26;101821.41;6283714;20;2853440;-47
2023/02/07 09:01:19;;;;;;;;;62.00;46.00;;;;;-0.78;70.70;101815.63;6280485;20;2503415;-46
2023/02/07 09:03:47;;;;;;;;;61.50;46.00;;;;;-1.07;69.63;101830.00;6283458;20;2860724;-46
2023/02/07 09:06:15;;;;;;;;;58.50;48.00;;;;;-0.90;68.76;101820.66;6285497;20;2497232;-46
2023/02/07 09:08:43;;;;;;;;;61.50;43.00;;;;;-1.04;68.92;101819.50;6283765;20;2884720;-48
2023/02/07 09:11:11;;;;;;;;;65.50;51.00;;;;;-0.74;68.25;101829.75;6280370;20;2498293;-48
2023/02/07 09:13:41;;;;;;;;;47.00;37.00;;;;;-0.71;66.67;101825.44;6285741;20;2878423;-47
2023/02/07 09:16:10;;;;;;;;;57.50;44.50;;;;;-0.67;66.16;101819.34;6282923;20;2843023;-46
2023/02/07 09:18:38;;;;;;;;;49.50;41.50;;;;;-0.82;66.07;101821.69;6284823;20;2869182;-48
2023/02/07 09:21:07;;;;;;;;;50.00;41.50;;;;;0.01;64.10;101824.94;6279803;20;2870063;-49
2023/02/07 09:23:37;;;;;;;;;58.00;40.67;;;;;0.49;61.99;101837.09;6277740;20;3647131;-48
2023/02/07 09:26:17;;;;;;;;;31.00;22.00;;;;;0.54;60.47;101831.00;6317383;20;2835277;-48
2023/02/07 09:28:47;;;;;;;;;61.67;41.67;;;;;0.65;59.97;101824.09;6284828;20;3631582;-46
2023/02/07 09:31:16;;;;;;;;;57.50;43.00;;;;;0.49;60.94;101827.41;6312920;20;2873280;-46
2023/02/07 09:33:46;;;;;;;;;53.67;39.00;;;;;0.31;60.64;101828.03;6284867;20;2867995;-47
2023/02/07 09:36:23;;;;;;;;;48.50;37.50;;;;;0.59;60.85;101829.31;6313817;20;2861868;-48
2023/02/07 09:38:52;;;;;;;;;47.00;44.00;;;;;0.99;61.05;101832.47;6281278;20;2508592;-48
2023/02/07 09:41:51;;;;;;;;;63.00;47.50;;;;;0.68;58.67;101832.94;6283740;20;2856577;-48
2023/02/07 09:44:53;;;;;;;;;37.50;32.50;;;;;0.46;59.64;101830.00;6286382;20;2859688;-47
2023/02/07 09:47:25;;;;;;;;;47.00;40.50;;;;;0.10;60.82;101823.31;6281951;20;2871230;-51
2023/02/07 09:50:14;;;;;;;;;58.50;44.00;;;;;0.02;60.95;101826.69;6284549;20;2852612;-50
2023/02/07 09:52:55;;;;;;;;;20.00;12.67;;;;;0.01;57.96;101817.88;6282415;20;2799366;-57
2023/02/07 09:56:04;;;;;;;;;33.00;23.00;;;;;-0.18;57.89;101826.38;6311041;20;2500357;-57
2023/02/07 09:59:19;;;;;;;;;35.00;34.00;;;;;-0.02;58.08;101828.41;6280351;20;2844032;-57
2023/02/07 10:01:56;;;;;;;;;41.00;32.00;;;;;0.03;59.00;101817.91;6276339;20;2500304;-58
2023/02/07 10:04:47;;;;;;;;;47.50;34.00;;;;;0.12;58.54;101813.66;6281497;20;3620214;-58
2023/02/07 10:07:16;;;;;;;;;44.00;38.00;;;;;0.40;57.93;101809.69;6314628;20;2855553;-58
2023/02/07 10:09:46;;;;;;;;;46.50;36.00;;;;;0.36;57.79;101809.59;6282501;20;2876386;-57
2023/02/07 10:13:06;;;;;;;;;35.00;25.00;;;;;-0.08;58.35;101807.16;6285306;20;2855541;-57
2023/02/07 10:16:15;;;;;;;;;27.00;23.33;;;;;0.18;58.33;101807.56;6283427;20;3577355;-54
2023/02/07 10:19:26;;;;;;;;;40.00;33.00;;;;;0.56;57.98;101807.25;6278187;20;2500332;-58
2023/02/07 10:22:31;;;;;;;;;40.50;29.50;;;;;0.51;59.44;101801.91;6282995;20;2867062;-46
2023/02/07 10:25:50;;;;;;;;;67.50;48.50;;;;;0.38;59.37;101813.16;6276457;20;2500269;-47
2023/02/07 10:28:25;;;;;;;;;62.50;48.50;;;;;0.36;59.22;101814.88;6276120;20;2857607;-47
2023/02/07 10:30:58;;;;;;;;;34.33;22.67;;;;;0.74;58.35;101811.88;6280262;20;3595098;-47
2023/02/07 10:33:45;;;;;;;;;37.50;33.50;;;;;0.74;58.86;101814.50;6281767;20;2500297;-50
2023/02/07 10:36:18;;;;;;;;;54.33;39.00;;;;;1.18;59.63;101808.88;6280996;20;2894246;-46
2023/02/07 10:39:21;;;;;;;;;37.50;35.00;;;;;0.55;59.70;101816.91;6308273;20;2500361;-46
2023/02/07 10:41:54;;;;;;;;;32.00;28.00;;;;;0.64;59.48;101809.13;6278656;20;2500413;-47
2023/02/07 10:44:24;;;;;;;;;41.00;35.00;;;;;0.27;59.77;101809.50;6284787;20;2873420;-49
2023/02/07 10:47:03;;;;;;;;;43.33;33.67;;;;;0.12;58.98;101804.84;6282939;20;2865936;-49
2023/02/07 10:49:35;;;;;;;;;40.50;35.00;;;;;0.30;59.69;101799.84;6313777;20;2502345;-46
2023/02/07 10:52:27;;;;;;;;;52.67;38.00;;;;;0.98;57.23;101804.28;6284064;20;2883844;-45
2023/02/07 10:55:06;;;;;;;;;30.67;28.33;;;;;1.22;56.58;101797.47;6308655;20;3582604;-51
2023/02/07 10:57:35;;;;;;;;;39.50;34.50;;;;;1.04;56.25;101796.41;6310357;20;2853551;-47
2023/02/07 11:00:31;;;;;;;;;51.00;41.00;;;;;1.03;57.57;101796.41;6280706;20;2863929;-47
2023/02/07 11:03:12;;;;;;;;;42.50;35.50;;;;;1.12;58.11;101790.31;6278183;20;2862774;-48
2023/02/07 11:06:01;;;;;;;;;51.67;38.33;;;;;1.01;58.59;101791.06;6279898;20;2876406;-48
2023/02/07 11:08:33;;;;;;;;;49.50;39.00;;;;;0.44;59.94;101781.53;6313906;20;2876451;-48
2023/02/07 11:11:32;;;;;;;;;37.00;34.00;;;;;0.84;60.30;101782.03;6280906;20;2858690;-49
2023/02/07 11:14:09;;;;;;;;;65.00;50.00;;;;;1.27;58.68;101777.25;6282016;20;2875405;-46
2023/02/07 11:16:43;;;;;;;;;39.00;36.50;;;;;1.26;58.76;101776.38;6310919;20;2854471;-47
2023/02/07 11:19:23;;;;;;;;;59.67;42.00;;;;;1.32;60.28;101770.25;6283736;20;2871264;-45
2023/02/07 11:22:19;;;;;;;;;59.00;44.50;;;;;1.47;59.63;101775.66;6312333;20;2861740;-47
2023/02/07 11:24:52;;;;;;;;;48.00;40.00;;;;;1.20;57.72;101770.13;6282166;20;2877397;-46
2023/02/07 11:27:22;;;;;;;;;57.50;40.50;;;;;1.07;60.05;101774.38;6279578;20;2902382;-46
2023/02/07 11:29:58;;;;;;;;;64.50;47.50;;;;;1.16;61.92;101770.94;6279661;20;2876364;-46